Time;durP1;ratioP1;P1;durP2;ratioP2;P2;SDS_P1;SDS_P2;PMS_P1;PMS_P2;Temp;Humidity;BMP_temperature;BMP_pressure;BME280_temperature;BME280_humidity;BME280_pressure;Samples;Min_cycle;Max_cycle;Signal;HPM_P1;HPM_P2
2023/10/21 00:01:05;;;;;;;14.33;7.73;;;11.40;99.90;;;;;;5017083;28;20049;-71
2023/10/21 00:03:31;;;;;;;;;;;11.40;99.90;;;;;;5015752;28;20061;-71
2023/10/21 00:05:56;;;;;;;15.35;7.43;;;11.40;99.90;;;;;;5017510;28;19924;-71
2023/10/21 00:08:22;;;;;;;14.57;7.53;;;11.40;99.90;;;;;;5021579;28;20045;-71
2023/10/21 00:10:48;;;;;;;16.97;7.97;;;11.40;99.90;;;;;;5005408;28;20132;-71
2023/10/21 00:13:13;;;;;;;19.07;7.63;;;11.40;99.90;;;;;;5015645;28;20060;-71
2023/10/21 00:15:40;;;;;;;16.03;7.77;;;11.40;99.90;;;;;;5017960;28;20041;-71
2023/10/21 00:18:07;;;;;;;18.73;7.25;;;11.40;99.90;;;;;;5018477;28;20526;-71
2023/10/21 00:20:36;;;;;;;18.45;7.95;;;11.40;99.90;;;;;;5016088;28;20038;-71
2023/10/21 00:23:02;;;;;;;15.23;7.43;;;11.40;99.90;;;;;;5014019;28;20054;-72
2023/10/21 00:25:28;;;;;;;;;;;11.40;99.90;;;;;;5014613;28;20049;-71
2023/10/21 00:27:54;;;;;;;14.77;6.32;;;11.40;99.90;;;;;;5019417;28;19921;-71
2023/10/21 00:30:20;;;;;;;17.77;7.20;;;11.40;99.90;;;;;;5021267;28;20478;-71
2023/10/21 00:32:48;;;;;;;16.95;8.77;;;11.40;99.90;;;;;;5006411;28;20568;-71
2023/10/21 00:35:13;;;;;;;15.25;7.63;;;11.40;99.90;;;;;;5010196;28;20076;-71
2023/10/21 00:37:39;;;;;;;15.17;7.17;;;11.40;99.90;;;;;;5018694;28;20120;-71
2023/10/21 00:40:06;;;;;;;15.93;7.05;;;11.40;99.90;;;;;;5018488;28;20038;-71
2023/10/21 00:42:31;;;;;;;14.82;7.35;;;11.40;99.90;;;;;;4999637;28;20073;-71
2023/10/21 00:45:03;;;;;;;17.87;7.80;;;11.40;99.90;;;;;;5022127;28;20142;-71
2023/10/21 00:47:29;;;;;;;15.38;7.30;;;11.40;99.90;;;;;;5003549;28;20505;-71
2023/10/21 00:49:55;;;;;;;13.90;6.47;;;11.40;99.90;;;;;;5024000;28;20069;-71
2023/10/21 00:52:21;;;;;;;15.38;7.03;;;11.40;99.90;;;;;;5022109;28;20054;-71
2023/10/21 00:54:47;;;;;;;11.80;6.00;;;11.40;99.90;;;;;;5022676;28;20124;-71
2023/10/21 00:57:12;;;;;;;15.57;7.00;;;11.40;99.90;;;;;;5020582;28;20132;-71
2023/10/21 00:59:40;;;;;;;12.13;5.95;;;11.40;99.90;;;;;;5018371;28;20131;-71
2023/10/21 01:02:13;;;;;;;15.18;7.13;;;11.40;99.90;;;;;;5023797;28;20513;-71
2023/10/21 01:04:41;;;;;;;17.38;7.80;;;11.40;99.90;;;;;;4999176;28;20178;-71
2023/10/21 01:07:15;;;;;;;14.98;6.72;;;11.40;99.90;;;;;;5019346;28;20037;-71
2023/10/21 01:09:41;;;;;;;17.45;7.40;;;11.40;99.90;;;;;;5023364;28;20041;-71
2023/10/21 01:12:09;;;;;;;16.23;7.10;;;11.40;99.90;;;;;;5008768;28;20513;-71
2023/10/21 01:14:34;;;;;;;12.02;6.40;;;11.30;99.90;;;;;;5016428;28;20290;-72
2023/10/21 01:17:00;;;;;;;13.13;6.40;;;11.30;99.90;;;;;;5021347;28;20040;-71
2023/10/21 01:19:25;;;;;;;14.67;6.07;;;11.40;99.90;;;;;;5013932;28;20171;-71
2023/10/21 01:21:51;;;;;;;17.35;5.97;;;11.30;99.90;;;;;;4996523;28;20050;-71
2023/10/21 01:24:20;;;;;;;15.20;6.47;;;11.40;99.90;;;;;;5021092;28;20068;-71
2023/10/21 01:26:45;;;;;;;12.10;6.15;;;11.40;99.90;;;;;;5014961;28;20108;-71
2023/10/21 01:29:13;;;;;;;13.52;5.40;;;11.30;99.90;;;;;;5015662;28;20042;-71
2023/10/21 01:31:42;;;;;;;12.88;6.18;;;11.40;99.90;;;;;;5020732;28;20311;-71
2023/10/21 01:34:08;;;;;;;14.03;6.80;;;11.40;99.90;;;;;;5013198;28;20108;-71
2023/10/21 01:36:34;;;;;;;15.90;6.60;;;11.40;99.90;;;;;;5011226;28;20128;-71
2023/10/21 01:39:00;;;;;;;16.83;6.03;;;11.40;99.90;;;;;;5020907;28;20061;-71
2023/10/21 01:41:25;;;;;;;9.77;6.07;;;11.40;99.90;;;;;;5015422;28;20128;-71
2023/10/21 01:43:51;;;;;;;14.20;7.00;;;11.40;99.90;;;;;;5020632;28;20079;-71
2023/10/21 01:46:17;;;;;;;17.00;6.37;;;11.40;99.90;;;;;;5008177;28;20490;-71
2023/10/21 01:48:42;;;;;;;14.83;6.33;;;11.50;99.90;;;;;;5021482;28;20039;-72
2023/10/21 01:51:08;;;;;;;11.67;6.43;;;11.40;99.90;;;;;;5004174;28;20275;-71
2023/10/21 01:53:37;;;;;;;12.50;6.85;;;11.40;99.90;;;;;;5016579;28;20049;-71
2023/10/21 01:56:03;;;;;;;14.00;6.35;;;11.40;99.90;;;;;;5016910;28;22614;-71
2023/10/21 01:58:30;;;;;;;;;;;11.40;99.90;;;;;;5018433;28;20624;-71
2023/10/21 02:00:56;;;;;;;8.25;5.40;;;11.40;99.90;;;;;;5023503;28;20258;-71
2023/10/21 02:03:21;;;;;;;14.53;6.23;;;11.40;99.90;;;;;;5020168;28;20038;-72
2023/10/21 02:05:58;;;;;;;10.48;5.95;;;11.30;99.90;;;;;;5016192;28;20131;-71
2023/10/21 02:08:27;;;;;;;14.88;5.65;;;11.30;99.90;;;;;;5013101;28;20140;-71
2023/10/21 02:10:52;;;;;;;10.65;5.30;;;11.40;99.90;;;;;;5011007;28;20054;-71
2023/10/21 02:13:18;;;;;;;10.70;5.30;;;11.30;99.90;;;;;;5014985;28;20041;-71
2023/10/21 02:15:44;;;;;;;11.57;5.28;;;11.20;99.90;;;;;;5014832;28;20049;-72
2023/10/21 02:18:10;;;;;;;7.53;4.87;;;11.30;99.90;;;;;;5016042;28;20049;-71
2023/10/21 02:20:36;;;;;;;10.93;4.10;;;11.20;99.90;;;;;;5018035;28;20513;-71
2023/10/21 02:23:03;;;;;;;9.35;5.00;;;11.20;99.90;;;;;;5020078;28;20068;-72
2023/10/21 02:25:29;;;;;;;7.90;4.45;;;11.20;99.90;;;;;;5017352;28;20175;-71
2023/10/21 02:27:55;;;;;;;11.48;5.00;;;11.10;99.90;;;;;;5017705;28;20053;-71
2023/10/21 02:30:20;;;;;;;10.33;4.83;;;11.10;99.90;;;;;;5017946;28;20067;-72
2023/10/21 02:32:50;;;;;;;7.78;4.32;;;11.10;99.90;;;;;;5020303;28;20302;-71
2023/10/21 02:35:19;;;;;;;7.90;4.28;;;11.10;99.90;;;;;;4997857;28;20145;-72
2023/10/21 02:37:45;;;;;;;10.00;4.50;;;11.10;99.90;;;;;;5020035;28;20041;-71
2023/10/21 02:40:15;;;;;;;14.23;3.92;;;11.10;99.90;;;;;;5021360;28;20048;-71
2023/10/21 02:42:42;;;;;;;13.30;3.95;;;11.00;99.90;;;;;;5013551;28;20041;-72
2023/10/21 02:45:08;;;;;;;6.88;4.07;;;11.10;99.90;;;;;;5002130;28;20045;-71
2023/10/21 02:47:36;;;;;;;11.07;4.10;;;11.00;99.90;;;;;;5011543;28;21016;-71
2023/10/21 02:50:03;;;;;;;10.85;4.10;;;11.00;99.90;;;;;;5002218;28;20049;-71
2023/10/21 02:52:29;;;;;;;8.38;4.50;;;11.00;99.90;;;;;;5025775;28;20050;-72
2023/10/21 02:54:57;;;;;;;7.55;3.97;;;11.00;99.90;;;;;;5011754;28;20063;-71
2023/10/21 02:57:22;;;;;;;9.15;4.45;;;11.00;99.90;;;;;;5017850;28;20116;-71
2023/10/21 02:59:48;;;;;;;9.90;4.40;;;11.00;99.90;;;;;;5013495;28;20427;-72
2023/10/21 03:02:14;;;;;;;7.83;3.70;;;10.90;99.90;;;;;;5011934;28;20099;-71
2023/10/21 03:04:40;;;;;;;10.10;5.00;;;10.90;99.90;;;;;;5014452;28;20120;-71
2023/10/21 03:07:08;;;;;;;8.55;4.30;;;11.00;99.90;;;;;;5022136;28;20272;-71
2023/10/21 03:09:34;;;;;;;7.95;3.92;;;10.90;99.90;;;;;;5010628;28;20064;-71
2023/10/21 03:12:05;;;;;;;11.77;4.67;;;10.90;99.90;;;;;;5009928;28;20034;-71
2023/10/21 03:14:31;;;;;;;7.45;3.83;;;11.00;99.90;;;;;;5015046;28;20325;-71
2023/10/21 03:16:58;;;;;;;10.40;4.53;;;11.00;99.90;;;;;;5017756;28;20490;-71
2023/10/21 03:19:24;;;;;;;8.50;4.32;;;11.00;99.90;;;;;;5020082;28;20037;-72
2023/10/21 03:21:50;;;;;;;10.03;4.73;;;10.90;99.90;;;;;;5014180;28;20083;-71
2023/10/21 03:24:15;;;;;;;7.73;3.73;;;11.00;99.90;;;;;;5020006;28;20366;-71
2023/10/21 03:26:41;;;;;;;9.13;3.57;;;10.90;99.90;;;;;;5012560;28;20049;-71
2023/10/21 03:29:08;;;;;;;8.13;4.00;;;10.90;99.90;;;;;;5010046;28;20057;-72
2023/10/21 03:31:34;;;;;;;9.63;4.68;;;10.90;99.90;;;;;;5011850;28;20043;-71
2023/10/21 03:33:59;;;;;;;8.05;4.28;;;10.90;99.90;;;;;;5015856;28;20563;-72
2023/10/21 03:36:28;;;;;;;9.82;4.53;;;10.90;99.90;;;;;;5014725;28;20064;-71
2023/10/21 03:38:56;;;;;;;11.13;4.65;;;10.90;99.90;;;;;;5018385;28;20053;-71
2023/10/21 03:41:24;;;;;;;8.40;4.40;;;10.80;99.90;;;;;;5014520;28;20077;-71
2023/10/21 03:43:50;;;;;;;10.90;5.18;;;10.80;99.90;;;;;;5010189;28;20135;-71
2023/10/21 03:46:15;;;;;;;10.90;4.47;;;10.90;99.90;;;;;;5010062;28;20053;-72
2023/10/21 03:48:41;;;;;;;8.53;4.27;;;10.90;99.90;;;;;;5019098;28;20432;-71
2023/10/21 03:51:11;;;;;;;9.95;4.55;;;10.80;99.90;;;;;;5015184;28;20054;-72
2023/10/21 03:53:37;;;;;;;7.88;4.40;;;10.80;99.90;;;;;;4998839;28;20050;-72
2023/10/21 03:56:02;;;;;;;9.40;5.07;;;10.80;99.90;;;;;;5013539;28;20503;-71
2023/10/21 03:58:28;;;;;;;9.82;4.68;;;10.80;99.90;;;;;;5028044;28;20100;-71
2023/10/21 04:00:56;;;;;;;7.55;4.85;;;10.80;99.90;;;;;;5018793;28;20124;-71
2023/10/21 04:03:29;;;;;;;8.85;4.85;;;10.70;99.90;;;;;;5016079;28;20050;-71
2023/10/21 04:05:55;;;;;;;15.65;5.57;;;10.70;99.90;;;;;;5013885;28;20155;-71
2023/10/21 04:08:25;;;;;;;9.80;5.38;;;10.70;99.90;;;;;;4997165;28;20111;-72
2023/10/21 04:10:53;;;;;;;13.93;6.22;;;10.70;99.90;;;;;;5004908;28;20047;-71
2023/10/21 04:13:21;;;;;;;11.07;6.15;;;10.60;99.90;;;;;;5018609;28;20049;-71
2023/10/21 04:15:49;;;;;;;17.70;6.90;;;10.60;99.90;;;;;;5018615;28;20517;-71
2023/10/21 04:18:15;;;;;;;11.98;6.65;;;10.60;99.90;;;;;;5014612;28;20103;-71
2023/10/21 04:20:41;;;;;;;13.03;6.40;;;10.60;99.90;;;;;;5007277;28;20065;-71
2023/10/21 04:23:07;;;;;;;15.57;6.75;;;10.60;99.90;;;;;;5015515;28;20063;-71
2023/10/21 04:25:32;;;;;;;16.87;7.00;;;10.60;99.90;;;;;;4999735;28;20065;-71
2023/10/21 04:27:58;;;;;;;13.25;6.80;;;10.50;99.90;;;;;;5019047;28;22373;-71
2023/10/21 04:30:24;;;;;;;16.65;7.30;;;10.40;99.90;;;;;;5012103;28;20076;-71
2023/10/21 04:32:51;;;;;;;14.57;6.93;;;10.50;99.90;;;;;;5020933;28;20079;-71
2023/10/21 04:35:17;;;;;;;16.52;8.05;;;10.50;99.90;;;;;;4999481;28;20053;-72
2023/10/21 04:37:42;;;;;;;16.85;8.30;;;10.50;99.90;;;;;;5016144;28;20041;-71
2023/10/21 04:40:08;;;;;;;16.93;7.77;;;10.50;99.90;;;;;;5023523;28;20055;-72
2023/10/21 04:42:38;;;;;;;17.13;8.07;;;10.50;99.90;;;;;;5024616;28;20041;-71
2023/10/21 04:45:07;;;;;;;16.05;7.72;;;10.50;99.90;;;;;;5018203;28;20060;-71
2023/10/21 04:47:33;;;;;;;13.90;7.05;;;10.50;99.90;;;;;;5020037;28;20041;-71
2023/10/21 04:50:01;;;;;;;16.13;7.93;;;10.50;99.90;;;;;;5002027;28;20395;-71
2023/10/21 04:52:27;;;;;;;14.65;7.95;;;10.40;99.90;;;;;;5021750;28;20274;-71
2023/10/21 04:54:53;;;;;;;16.67;7.70;;;10.40;99.90;;;;;;5025609;28;20045;-71
2023/10/21 04:57:21;;;;;;;16.23;8.03;;;10.40;99.90;;;;;;5019218;28;20045;-71
2023/10/21 04:59:47;;;;;;;18.30;8.43;;;10.40;99.90;;;;;;5022646;28;20049;-72
2023/10/21 05:02:15;;;;;;;19.88;8.15;;;10.40;99.90;;;;;;5012241;28;20037;-72
2023/10/21 05:04:40;;;;;;;15.43;7.78;;;10.40;99.90;;;;;;5019662;28;20449;-71
2023/10/21 05:07:07;;;;;;;14.43;6.83;;;10.30;99.90;;;;;;5023514;28;20041;-72
2023/10/21 05:09:32;;;;;;;22.27;8.10;;;10.40;99.90;;;;;;5002608;28;20069;-71
2023/10/21 05:12:01;;;;;;;16.83;8.33;;;10.40;99.90;;;;;;5023024;28;20080;-71
2023/10/21 05:14:27;;;;;;;14.95;6.93;;;10.40;99.90;;;;;;5022649;28;20037;-71
2023/10/21 05:16:52;;;;;;;13.40;7.03;;;10.30;99.90;;;;;;5004121;28;20049;-71
2023/10/21 05:19:18;;;;;;;14.97;7.50;;;10.30;99.90;;;;;;5026625;28;20041;-71
2023/10/21 05:21:44;;;;;;;13.13;7.53;;;10.40;99.90;;;;;;5013823;28;20378;-71
2023/10/21 05:24:09;;;;;;;13.68;7.13;;;10.40;99.90;;;;;;5022706;28;20091;-71
2023/10/21 05:26:36;;;;;;;15.70;7.47;;;10.40;99.90;;;;;;5021560;28;20072;-71
2023/10/21 05:29:02;;;;;;;17.35;7.75;;;10.40;99.90;;;;;;5019066;28;20045;-71
2023/10/21 05:31:28;;;;;;;13.48;7.22;;;10.30;99.90;;;;;;5015261;28;20049;-71
2023/10/21 05:33:57;;;;;;;;;;;10.30;99.90;;;;;;5019235;28;20076;-71
2023/10/21 05:36:26;;;;;;;16.30;7.18;;;10.30;99.90;;;;;;5002655;28;20031;-71
2023/10/21 05:38:52;;;;;;;12.73;6.88;;;10.40;99.90;;;;;;5012206;28;20422;-72
2023/10/21 05:41:20;;;;;;;15.83;7.50;;;10.40;99.90;;;;;;5023762;28;20053;-71
2023/10/21 05:43:46;;;;;;;12.95;7.53;;;10.40;99.90;;;;;;5014901;28;20069;-72
2023/10/21 05:46:11;;;;;;;16.52;7.78;;;10.40;99.90;;;;;;5012248;28;20081;-71
2023/10/21 05:48:38;;;;;;;13.37;7.33;;;10.40;99.90;;;;;;5022698;28;20050;-71
2023/10/21 05:51:04;;;;;;;13.38;7.82;;;10.40;99.90;;;;;;5012955;28;20053;-72
2023/10/21 05:53:29;;;;;;;13.35;7.78;;;10.50;99.90;;;;;;5015473;28;20119;-71
2023/10/21 05:55:56;;;;;;;15.27;7.00;;;10.40;99.90;;;;;;4998150;28;20071;-71
2023/10/21 05:58:23;;;;;;;13.45;7.35;;;10.50;99.90;;;;;;5017149;28;20048;-71
2023/10/21 06:00:49;;;;;;;17.35;7.85;;;10.50;99.90;;;;;;5000224;28;20037;-72
2023/10/21 06:03:14;;;;;;;14.25;7.82;;;10.40;99.90;;;;;;5014908;28;20049;-72
2023/10/21 06:05:41;;;;;;;13.73;7.57;;;10.40;99.90;;;;;;5017556;28;20326;-71
2023/10/21 06:08:10;;;;;;;16.10;7.70;;;10.50;99.90;;;;;;5015625;28;20651;-71
2023/10/21 06:10:36;;;;;;;12.68;6.68;;;10.40;99.90;;;;;;5022303;28;20060;-71
2023/10/21 06:13:05;;;;;;;18.52;7.82;;;10.50;99.90;;;;;;5020435;28;20037;-71
2023/10/21 06:15:32;;;;;;;12.55;7.28;;;10.50;99.90;;;;;;5015581;28;20134;-71
2023/10/21 06:17:57;;;;;;;13.35;7.00;;;10.50;99.90;;;;;;5015627;28;20076;-71
2023/10/21 06:20:24;;;;;;;12.83;7.43;;;10.50;99.90;;;;;;5019802;28;20066;-71
2023/10/21 06:22:52;;;;;;;14.95;7.20;;;10.50;99.90;;;;;;5019980;28;20041;-71
2023/10/21 06:25:18;;;;;;;22.67;7.32;;;10.50;99.90;;;;;;5014390;28;20115;-72
2023/10/21 06:27:46;;;;;;;13.60;7.05;;;10.50;99.90;;;;;;5020982;28;20045;-72
2023/10/21 06:30:12;;;;;;;14.95;7.43;;;10.50;99.90;;;;;;5013439;28;20046;-71
2023/10/21 06:32:38;;;;;;;15.00;7.38;;;10.50;99.90;;;;;;5001090;28;20049;-71
2023/10/21 06:35:07;;;;;;;12.70;6.53;;;10.50;99.90;;;;;;5012676;28;20053;-71
2023/10/21 06:37:32;;;;;;;13.07;7.03;;;10.50;99.90;;;;;;5019958;28;20398;-71
2023/10/21 06:40:00;;;;;;;16.73;7.47;;;10.50;99.90;;;;;;5017838;28;20041;-71
2023/10/21 06:42:26;;;;;;;13.55;6.72;;;10.60;99.90;;;;;;5012394;28;20330;-71
2023/10/21 06:44:51;;;;;;;13.50;6.50;;;10.60;99.90;;;;;;5014104;28;20072;-71
2023/10/21 06:47:17;;;;;;;13.90;6.90;;;10.70;99.90;;;;;;5018356;28;20128;-71
2023/10/21 06:49:45;;;;;;;14.03;6.07;;;10.70;99.90;;;;;;5024734;28;20033;-70
2023/10/21 06:52:10;;;;;;;15.63;7.30;;;10.70;99.90;;;;;;5015824;28;20514;-72
2023/10/21 06:54:36;;;;;;;13.30;6.60;;;10.70;99.90;;;;;;5015605;28;20037;-71
2023/10/21 06:57:01;;;;;;;14.97;7.23;;;10.80;99.90;;;;;;5000631;28;20070;-71
2023/10/21 06:59:30;;;;;;;13.53;6.90;;;10.80;99.90;;;;;;5015253;28;20083;-71
2023/10/21 07:01:55;;;;;;;12.40;6.57;;;10.80;99.90;;;;;;5011891;28;20045;-71
2023/10/21 07:04:21;;;;;;;12.47;7.13;;;10.90;99.90;;;;;;5019200;28;20117;-71
2023/10/21 07:06:48;;;;;;;12.40;7.45;;;10.90;99.90;;;;;;5001605;28;20037;-71
2023/10/21 07:09:14;;;;;;;11.23;7.03;;;11.00;99.90;;;;;;5012278;28;20057;-71
2023/10/21 07:11:40;;;;;;;12.43;6.95;;;11.00;99.90;;;;;;5019075;28;20053;-72
2023/10/21 07:14:08;;;;;;;12.23;6.75;;;11.00;99.90;;;;;;5019796;28;20183;-71
2023/10/21 07:16:38;;;;;;;12.95;7.03;;;11.10;99.90;;;;;;4996858;28;20049;-71
2023/10/21 07:19:04;;;;;;;16.48;7.30;;;11.10;99.90;;;;;;5015220;28;20030;-71
2023/10/21 07:21:32;;;;;;;12.23;6.72;;;11.20;99.90;;;;;;5023847;28;20490;-71
2023/10/21 07:23:58;;;;;;;13.77;7.05;;;11.30;99.90;;;;;;5014009;28;20140;-71
2023/10/21 07:26:24;;;;;;;16.23;7.60;;;11.30;99.90;;;;;;5013155;28;20124;-71
2023/10/21 07:28:49;;;;;;;14.05;6.90;;;11.30;99.90;;;;;;5016545;28;20422;-71
2023/10/21 07:31:15;;;;;;;14.52;7.47;;;11.40;99.90;;;;;;5005454;28;20502;-71
2023/10/21 07:33:43;;;;;;;15.57;7.77;;;11.40;99.90;;;;;;5013364;28;20405;-71
2023/10/21 07:36:09;;;;;;;14.32;6.85;;;11.40;99.90;;;;;;5014801;28;20047;-71
2023/10/21 07:38:35;;;;;;;13.77;7.10;;;11.40;99.90;;;;;;5020473;28;20037;-71
2023/10/21 07:41:12;;;;;;;16.08;7.07;;;11.40;99.90;;;;;;5015940;28;20046;-71
2023/10/21 07:43:46;;;;;;;13.93;7.18;;;11.50;99.90;;;;;;5018717;28;20520;-71
2023/10/21 07:46:12;;;;;;;11.35;6.53;;;11.50;99.90;;;;;;5009314;28;20108;-71
2023/10/21 07:48:39;;;;;;;13.13;6.80;;;11.60;99.90;;;;;;5014212;28;20072;-71
2023/10/21 07:51:05;;;;;;;15.40;7.20;;;11.60;99.90;;;;;;5016251;28;20037;-71
2023/10/21 07:53:31;;;;;;;18.83;8.45;;;11.70;99.90;;;;;;5013487;28;20041;-71
2023/10/21 07:55:57;;;;;;;17.48;7.35;;;11.70;99.90;;;;;;5017710;28;20122;-71
2023/10/21 07:58:23;;;;;;;13.47;6.10;;;11.80;99.90;;;;;;5020034;28;20057;-71
2023/10/21 08:00:49;;;;;;;16.30;7.43;;;11.80;99.90;;;;;;5017512;28;20659;-71
2023/10/21 08:03:14;;;;;;;12.95;6.97;;;11.90;99.90;;;;;;5013353;28;20068;-71
2023/10/21 08:05:40;;;;;;;17.70;7.73;;;11.90;99.90;;;;;;5018978;28;20084;-71
2023/10/21 08:08:07;;;;;;;13.48;6.97;;;11.90;99.90;;;;;;5015390;28;20275;-71
2023/10/21 08:10:33;;;;;;;14.65;7.20;;;12.00;99.90;;;;;;5005924;28;20045;-71
2023/10/21 08:12:59;;;;;;;18.98;7.53;;;12.00;99.90;;;;;;5014115;28;20054;-71
2023/10/21 08:15:25;;;;;;;16.27;7.10;;;12.10;99.90;;;;;;5017930;28;20425;-71
2023/10/21 08:17:51;;;;;;;12.63;7.53;;;12.10;99.90;;;;;;5011658;28;20128;-71
2023/10/21 08:20:19;;;;;;;16.90;8.15;;;12.10;99.90;;;;;;5020373;28;20338;-71
2023/10/21 08:22:45;;;;;;;14.35;7.30;;;12.20;99.90;;;;;;5017745;28;20087;-71
2023/10/21 08:25:10;;;;;;;13.80;7.40;;;12.20;99.90;;;;;;5011708;28;20141;-71
2023/10/21 08:27:39;;;;;;;18.88;7.65;;;12.30;99.90;;;;;;5020113;28;20368;-71
2023/10/21 08:30:09;;;;;;;13.82;6.82;;;12.30;99.90;;;;;;5017241;28;20038;-71
2023/10/21 08:32:38;;;;;;;13.48;7.75;;;12.40;99.90;;;;;;5015846;28;20104;-71
2023/10/21 08:35:04;;;;;;;19.67;8.13;;;12.30;99.90;;;;;;4999281;28;20045;-71
2023/10/21 08:37:30;;;;;;;;;;;12.40;99.90;;;;;;5018281;28;20497;-71
2023/10/21 08:39:56;;;;;;;14.43;6.50;;;12.50;99.90;;;;;;5015332;28;20063;-71
2023/10/21 08:42:26;;;;;;;12.38;5.93;;;12.50;99.90;;;;;;5017975;28;20418;-71
2023/10/21 08:45:00;;;;;;;13.55;6.22;;;12.60;99.90;;;;;;5012110;28;20191;-71
2023/10/21 08:47:27;;;;;;;15.73;6.85;;;12.70;99.90;;;;;;5018168;28;20045;-71
2023/10/21 08:49:54;;;;;;;13.10;5.88;;;12.70;99.90;;;;;;5013062;28;20371;-71
2023/10/21 08:52:19;;;;;;;12.75;6.50;;;12.80;99.90;;;;;;5015335;28;20460;-71
2023/10/21 08:54:48;;;;;;;14.85;6.10;;;12.80;99.90;;;;;;4996968;28;20041;-71
2023/10/21 08:57:14;;;;;;;11.60;6.20;;;12.80;99.90;;;;;;5020187;28;20256;-71
2023/10/21 08:59:40;;;;;;;12.93;6.05;;;12.90;99.90;;;;;;5023546;28;20444;-71
2023/10/21 09:02:07;;;;;;;10.95;5.80;;;12.90;99.90;;;;;;4998430;28;20149;-71
2023/10/21 09:04:32;;;;;;;;;;;13.00;99.90;;;;;;5014603;28;20037;-70
2023/10/21 09:06:59;;;;;;;9.90;5.40;;;13.00;99.90;;;;;;5016809;28;19928;-71
2023/10/21 09:09:26;;;;;;;11.95;5.43;;;13.10;99.90;;;;;;5021897;28;20052;-70
2023/10/21 09:12:18;;;;;;;8.18;4.85;;;13.20;99.90;;;;;;5013324;28;20545;-70
2023/10/21 09:15:01;;;;;;;13.48;4.97;;;13.30;99.90;;;;;;5015019;28;20042;-71
2023/10/21 09:17:35;;;;;;;11.63;4.90;;;13.30;99.90;;;;;;5015112;28;20046;-70
2023/10/21 09:20:17;;;;;;;11.73;5.13;;;13.30;99.90;;;;;;5024011;28;20099;-74
2023/10/21 09:22:45;;;;;;;8.52;4.78;;;13.30;99.90;;;;;;4994791;28;20065;-72
2023/10/21 09:25:16;;;;;;;11.23;4.78;;;13.20;99.90;;;;;;5013796;28;20045;-71
2023/10/21 09:27:43;;;;;;;11.45;4.50;;;13.30;99.90;;;;;;5018895;28;20052;-71
2023/10/21 09:30:17;;;;;;;9.82;4.90;;;13.30;99.90;;;;;;4997825;28;20044;-72
2023/10/21 09:32:52;;;;;;;6.47;4.15;;;13.40;99.90;;;;;;5010332;28;20041;-72
2023/10/21 09:35:30;;;;;;;8.65;4.47;;;13.40;99.90;;;;;;4997614;28;20052;-71
2023/10/21 09:38:16;;;;;;;7.55;4.00;;;13.40;99.90;;;;;;5017494;28;20418;-72
2023/10/21 09:40:42;;;;;;;7.65;3.97;;;13.50;99.90;;;;;;5015196;28;20107;-71
2023/10/21 09:43:11;;;;;;;6.53;4.03;;;13.50;99.90;;;;;;5017267;28;20516;-72
2023/10/21 09:45:42;;;;;;;6.32;3.58;;;13.60;99.90;;;;;;5006449;28;20190;-71
2023/10/21 09:48:11;;;;;;;7.63;3.55;;;13.50;99.90;;;;;;5003563;28;20053;-72
2023/10/21 09:50:42;;;;;;;6.50;3.08;;;13.60;99.90;;;;;;5013372;28;20045;-72
2023/10/21 09:53:19;;;;;;;5.72;3.55;;;13.60;99.90;;;;;;5011527;28;20413;-71
2023/10/21 09:55:47;;;;;;;8.75;3.38;;;13.60;99.90;;;;;;5018035;28;20045;-72
2023/10/21 09:58:20;;;;;;;6.80;3.33;;;13.60;99.90;;;;;;5018411;28;20045;-72
2023/10/21 10:00:47;;;;;;;6.53;3.08;;;13.60;99.90;;;;;;5018233;28;20175;-71
2023/10/21 10:03:17;;;;;;;8.15;3.30;;;13.60;99.90;;;;;;5024719;28;20133;-72
2023/10/21 10:05:44;;;;;;;6.72;2.72;;;13.70;99.90;;;;;;5018788;28;20117;-72
2023/10/21 10:08:13;;;;;;;6.50;2.60;;;13.60;99.90;;;;;;5016336;28;20179;-72
2023/10/21 10:10:39;;;;;;;4.40;2.20;;;13.60;99.90;;;;;;5017990;28;20049;-72
2023/10/21 10:13:11;;;;;;;4.57;2.08;;;13.60;99.90;;;;;;5016333;28;20057;-72
2023/10/21 10:15:41;;;;;;;6.57;2.20;;;13.60;99.90;;;;;;5018554;28;20053;-72
2023/10/21 10:18:18;;;;;;;2.60;1.88;;;13.60;99.90;;;;;;5016758;28;20042;-72
2023/10/21 10:20:49;;;;;;;2.30;1.70;;;13.60;99.90;;;;;;5016377;28;20049;-72
2023/10/21 10:23:18;;;;;;;5.35;2.20;;;13.60;99.90;;;;;;5016748;28;20052;-72
2023/10/21 10:25:46;;;;;;;3.55;2.05;;;13.60;99.90;;;;;;5020244;28;20132;-72
2023/10/21 10:28:19;;;;;;;4.80;1.83;;;13.60;99.90;;;;;;5021762;28;20225;-72
2023/10/21 10:30:46;;;;;;;5.40;2.17;;;13.50;99.90;;;;;;5024532;28;20052;-72
2023/10/21 10:33:25;;;;;;;3.92;2.20;;;13.60;99.90;;;;;;5013440;28;20052;-72
2023/10/21 10:35:52;;;;;;;4.80;2.28;;;13.60;99.90;;;;;;5004177;28;20076;-72
2023/10/21 10:38:24;;;;;;;4.22;2.42;;;13.60;99.90;;;;;;5020345;28;20069;-72
2023/10/21 10:41:05;;;;;;;4.07;2.28;;;13.60;99.90;;;;;;5019588;28;20096;-72
2023/10/21 10:43:37;;;;;;;5.30;3.15;;;13.60;99.90;;;;;;5029849;28;20033;-72
2023/10/21 10:46:04;;;;;;;6.30;2.83;;;13.70;99.90;;;;;;5007062;28;20137;-72
2023/10/21 10:48:34;;;;;;;8.02;2.97;;;13.70;99.90;;;;;;5017455;28;20370;-72
2023/10/21 10:51:06;;;;;;;8.80;3.30;;;13.70;99.90;;;;;;5009612;28;20102;-72
2023/10/21 10:53:39;;;;;;;6.75;1.85;;;13.80;99.90;;;;;;5020308;28;20480;-72
2023/10/21 10:56:09;;;;;;;4.00;1.70;;;13.70;99.90;;;;;;5005078;28;20046;-72
2023/10/21 10:58:35;;;;;;;3.13;1.77;;;13.70;99.90;;;;;;5018374;28;20041;-71
2023/10/21 11:01:07;;;;;;;3.85;1.60;;;13.70;99.90;;;;;;5020102;28;20509;-72
2023/10/21 11:03:33;;;;;;;2.70;1.60;;;13.70;99.90;;;;;;5015710;28;20049;-71
2023/10/21 11:06:03;;;;;;;4.82;1.45;;;13.70;99.90;;;;;;5015901;28;20061;-72
2023/10/21 11:08:30;;;;;;;4.95;1.38;;;13.60;99.90;;;;;;5019199;28;20045;-72
2023/10/21 11:11:06;;;;;;;3.75;1.65;;;13.70;99.90;;;;;;5016338;28;20042;-72
2023/10/21 11:13:33;;;;;;;4.72;1.50;;;13.70;99.90;;;;;;5004300;28;20045;-72
2023/10/21 11:16:05;;;;;;;4.25;1.83;;;13.70;99.90;;;;;;5003900;28;20056;-72
2023/10/21 11:18:31;;;;;;;2.67;1.17;;;13.70;99.90;;;;;;5018239;28;20126;-70
2023/10/21 11:20:58;;;;;;;8.05;2.05;;;13.70;99.90;;;;;;5018117;28;20888;-71
2023/10/21 11:23:23;;;;;;;3.25;1.50;;;13.60;99.90;;;;;;5014596;28;20049;-71
2023/10/21 11:25:58;;;;;;;3.30;1.25;;;13.60;99.90;;;;;;5013911;28;20064;-70
2023/10/21 11:28:28;;;;;;;2.83;1.30;;;13.50;99.90;;;;;;5022921;28;20129;-70
2023/10/21 11:30:55;;;;;;;5.63;1.17;;;13.60;99.90;;;;;;5024749;28;20183;-70
2023/10/21 11:33:21;;;;;;;2.58;1.20;;;13.60;99.90;;;;;;5005920;28;20077;-70
2023/10/21 11:35:48;;;;;;;2.10;1.02;;;13.50;99.90;;;;;;5022925;28;20045;-70
2023/10/21 11:38:18;;;;;;;3.97;1.10;;;13.60;99.90;;;;;;5024179;28;20060;-71
2023/10/21 11:40:45;;;;;;;2.80;0.90;;;13.50;99.90;;;;;;5019792;28;20041;-71
2023/10/21 11:43:13;;;;;;;2.40;0.75;;;13.60;99.90;;;;;;5007471;28;20037;-71
2023/10/21 11:45:39;;;;;;;1.70;1.02;;;13.60;99.90;;;;;;5013245;28;20138;-70
2023/10/21 11:48:09;;;;;;;3.78;0.77;;;13.60;99.90;;;;;;4994533;28;20061;-71
2023/10/21 11:50:39;;;;;;;3.22;0.75;;;13.60;99.90;;;;;;5022683;28;20037;-71
2023/10/21 11:53:06;;;;;;;4.47;1.10;;;13.60;99.90;;;;;;5021548;28;20414;-71
2023/10/21 12:04:22;;;;;;;5.28;1.30;;;13.50;99.90;;;;;;5016365;28;20555;-71
2023/10/21 12:16:36;;;;;;;4.97;1.10;;;13.80;99.90;;;;;;5012974;28;20525;-71
2023/10/21 12:22:28;;;;;;;3.28;1.20;;;14.00;99.90;;;;;;5012679;28;20414;-71
2023/10/21 12:40:33;;;;;;;2.70;1.25;;;14.10;99.90;;;;;;5015797;28;20048;-71
2023/10/21 12:45:49;;;;;;;4.03;1.20;;;14.30;99.90;;;;;;5016272;28;20042;-72
2023/10/21 12:48:19;;;;;;;3.88;0.80;;;14.40;99.90;;;;;;5018191;28;20557;-72
2023/10/21 12:50:46;;;;;;;2.28;0.70;;;14.40;99.90;;;;;;5023605;28;20061;-72
2023/10/21 12:53:15;;;;;;;1.35;0.60;;;14.50;99.90;;;;;;5018006;28;20484;-72
2023/10/21 12:55:41;;;;;;;3.20;0.75;;;14.50;99.90;;;;;;5019814;28;20129;-71
2023/10/21 12:58:07;;;;;;;1.20;0.50;;;14.50;99.90;;;;;;5015840;28;20073;-72
2023/10/21 13:00:34;;;;;;;2.93;0.70;;;14.50;99.90;;;;;;5015133;28;20095;-72
2023/10/21 13:03:10;;;;;;;2.78;1.10;;;14.40;99.90;;;;;;5020673;28;20092;-72
2023/10/21 13:05:37;;;;;;;1.92;0.70;;;14.40;99.90;;;;;;5018879;28;20108;-72
2023/10/21 13:08:07;;;;;;;1.70;0.63;;;14.30;99.90;;;;;;5008937;28;20388;-72
2023/10/21 13:10:33;;;;;;;1.15;0.68;;;14.30;99.90;;;;;;5020348;28;20461;-72
2023/10/21 13:13:02;;;;;;;3.70;0.60;;;14.30;99.90;;;;;;5013735;28;20049;-72
2023/10/21 13:15:29;;;;;;;3.83;0.70;;;14.30;99.90;;;;;;5023171;28;20524;-72
2023/10/21 13:17:57;;;;;;;3.33;0.50;;;14.30;99.90;;;;;;5020803;28;20389;-72
2023/10/21 13:20:23;;;;;;;2.03;0.63;;;14.30;99.90;;;;;;5017097;28;20053;-72
2023/10/21 13:22:53;;;;;;;2.17;0.65;;;14.20;99.90;;;;;;5018397;28;20045;-72
2023/10/21 13:25:19;;;;;;;1.65;0.45;;;14.30;99.90;;;;;;5014625;28;20061;-73